sensor_id;sensor_type;location;lat;lon;timestamp;pressure;altitude;pressure_sealevel;temperature;humidity
31911;BME280;18457;52.432;16.914;2023-07-20T00:00:59;99819.85;;;20.00;81.68
31911;BME280;18457;52.432;16.914;2023-07-20T00:03:36;99818.86;;;19.91;82.60
31911;BME280;18457;52.432;16.914;2023-07-20T00:06:08;99822.85;;;19.87;84.55
31911;BME280;18457;52.432;16.914;2023-07-20T00:08:40;99827.03;;;19.95;84.00
31911;BME280;18457;52.432;16.914;2023-07-20T00:11:12;99817.24;;;19.98;85.08
31911;BME280;18457;52.432;16.914;2023-07-20T00:13:44;99824.38;;;19.93;86.70
31911;BME280;18457;52.432;16.914;2023-07-20T00:16:16;99829.27;;;19.61;89.22
31911;BME280;18457;52.432;16.914;2023-07-20T00:18:48;99828.98;;;19.52;87.78
31911;BME280;18457;52.432;16.914;2023-07-20T00:21:20;99826.63;;;19.47;87.23
31911;BME280;18457;52.432;16.914;2023-07-20T00:23:52;99822.52;;;19.56;87.50
31911;BME280;18457;52.432;16.914;2023-07-20T00:26:24;99818.85;;;19.68;85.76
31911;BME280;18457;52.432;16.914;2023-07-20T00:28:56;99815.73;;;19.63;87.00
31911;BME280;18457;52.432;16.914;2023-07-20T00:31:28;99820.27;;;19.67;89.05
31911;BME280;18457;52.432;16.914;2023-07-20T00:34:00;99830.99;;;19.73;87.90
31911;BME280;18457;52.432;16.914;2023-07-20T00:36:32;99835.05;;;19.78;86.76
31911;BME280;18457;52.432;16.914;2023-07-20T00:39:05;99836.02;;;19.82;86.43
31911;BME280;18457;52.432;16.914;2023-07-20T00:41:38;99846.27;;;19.77;86.43
31911;BME280;18457;52.432;16.914;2023-07-20T00:44:10;99845.39;;;19.66;85.92
31911;BME280;18457;52.432;16.914;2023-07-20T00:46:42;99848.06;;;19.62;86.20
31911;BME280;18457;52.432;16.914;2023-07-20T00:49:15;99855.94;;;19.63;86.35
31911;BME280;18457;52.432;16.914;2023-07-20T00:51:52;99852.10;;;19.57;86.81
31911;BME280;18457;52.432;16.914;2023-07-20T00:54:24;99843.73;;;19.59;87.25
31911;BME280;18457;52.432;16.914;2023-07-20T00:56:56;99837.75;;;19.63;86.30
31911;BME280;18457;52.432;16.914;2023-07-20T00:59:28;99837.35;;;19.61;86.36
31911;BME280;18457;52.432;16.914;2023-07-20T01:02:01;99841.02;;;19.58;87.35
31911;BME280;18457;52.432;16.914;2023-07-20T01:04:33;99841.02;;;19.56;87.91
31911;BME280;18457;52.432;16.914;2023-07-20T01:07:12;99841.56;;;19.56;88.07
31911;BME280;18457;52.432;16.914;2023-07-20T01:09:52;99846.90;;;19.53;89.77
31911;BME280;18457;52.432;16.914;2023-07-20T01:12:32;99846.13;;;19.48;91.29
31911;BME280;18457;52.432;16.914;2023-07-20T01:15:06;99850.48;;;19.47;90.92
31911;BME280;18457;52.432;16.914;2023-07-20T01:17:38;99850.14;;;19.27;92.02
31911;BME280;18457;52.432;16.914;2023-07-20T01:20:14;99850.34;;;19.19;92.54
31911;BME280;18457;52.432;16.914;2023-07-20T01:23:06;99852.23;;;19.26;90.07
31911;BME280;18457;52.432;16.914;2023-07-20T01:26:01;99855.75;;;19.25;90.73
31911;BME280;18457;52.432;16.914;2023-07-20T01:28:57;99854.27;;;19.23;90.24
31911;BME280;18457;52.432;16.914;2023-07-20T01:31:32;99849.22;;;19.11;91.29
31911;BME280;18457;52.432;16.914;2023-07-20T01:34:07;99849.06;;;19.05;92.04
31911;BME280;18457;52.432;16.914;2023-07-20T01:36:40;99849.81;;;19.11;92.75
31911;BME280;18457;52.432;16.914;2023-07-20T01:39:14;99848.64;;;19.15;91.47
31911;BME280;18457;52.432;16.914;2023-07-20T01:41:46;99844.24;;;19.11;91.01
31911;BME280;18457;52.432;16.914;2023-07-20T01:44:18;99834.94;;;19.11;91.92
31911;BME280;18457;52.432;16.914;2023-07-20T01:46:50;99830.44;;;19.13;92.04
31911;BME280;18457;52.432;16.914;2023-07-20T01:49:21;99812.08;;;19.10;92.36
31911;BME280;18457;52.432;16.914;2023-07-20T01:51:53;99806.52;;;19.06;92.42
31911;BME280;18457;52.432;16.914;2023-07-20T01:54:25;99818.45;;;19.09;91.22
31911;BME280;18457;52.432;16.914;2023-07-20T01:56:57;99819.64;;;19.10;90.72
31911;BME280;18457;52.432;16.914;2023-07-20T01:59:29;99822.42;;;19.06;90.69
31911;BME280;18457;52.432;16.914;2023-07-20T02:02:01;99830.94;;;19.03;90.30
31911;BME280;18457;52.432;16.914;2023-07-20T02:04:33;99830.23;;;19.02;90.11
31911;BME280;18457;52.432;16.914;2023-07-20T02:07:05;99825.73;;;18.98;90.58
31911;BME280;18457;52.432;16.914;2023-07-20T02:09:37;99836.49;;;18.96;89.82
31911;BME280;18457;52.432;16.914;2023-07-20T02:12:13;99839.02;;;18.97;90.12
31911;BME280;18457;52.432;16.914;2023-07-20T02:14:47;99843.26;;;18.94;91.16
31911;BME280;18457;52.432;16.914;2023-07-20T02:17:21;99845.36;;;18.76;93.02
31911;BME280;18457;52.432;16.914;2023-07-20T02:19:54;99841.56;;;18.59;94.43
31911;BME280;18457;52.432;16.914;2023-07-20T02:22:26;99842.27;;;18.57;95.19
31911;BME280;18457;52.432;16.914;2023-07-20T02:24:58;99841.55;;;18.60;94.87
31911;BME280;18457;52.432;16.914;2023-07-20T02:27:31;99840.02;;;18.41;97.28
31911;BME280;18457;52.432;16.914;2023-07-20T02:30:03;99839.99;;;18.44;97.41
31911;BME280;18457;52.432;16.914;2023-07-20T02:32:35;99839.37;;;18.46;97.23
31911;BME280;18457;52.432;16.914;2023-07-20T02:35:08;99850.18;;;18.51;96.88
31911;BME280;18457;52.432;16.914;2023-07-20T02:37:40;99849.71;;;18.52;96.00
31911;BME280;18457;52.432;16.914;2023-07-20T02:40:13;99847.38;;;18.46;96.41
31911;BME280;18457;52.432;16.914;2023-07-20T02:42:44;99850.63;;;18.44;96.33
31911;BME280;18457;52.432;16.914;2023-07-20T02:45:17;99848.13;;;18.37;96.90
31911;BME280;18457;52.432;16.914;2023-07-20T02:47:48;99850.29;;;18.35;97.03
31911;BME280;18457;52.432;16.914;2023-07-20T02:50:21;99853.54;;;18.41;96.74
31911;BME280;18457;52.432;16.914;2023-07-20T02:52:53;99851.90;;;18.27;97.88
31911;BME280;18457;52.432;16.914;2023-07-20T02:55:25;99842.25;;;18.18;98.49
31911;BME280;18457;52.432;16.914;2023-07-20T02:57:57;99843.91;;;18.20;98.54
31911;BME280;18457;52.432;16.914;2023-07-20T03:00:29;99842.23;;;18.24;98.39
31911;BME280;18457;52.432;16.914;2023-07-20T03:03:01;99838.70;;;18.02;99.99
31911;BME280;18457;52.432;16.914;2023-07-20T03:05:33;99831.90;;;17.91;100.00
31911;BME280;18457;52.432;16.914;2023-07-20T03:08:05;99839.89;;;17.92;100.00
31911;BME280;18457;52.432;16.914;2023-07-20T03:10:41;99847.03;;;17.89;100.00
31911;BME280;18457;52.432;16.914;2023-07-20T03:13:13;99847.89;;;17.87;100.00
31911;BME280;18457;52.432;16.914;2023-07-20T03:15:46;99852.30;;;18.01;100.00
31911;BME280;18457;52.432;16.914;2023-07-20T03:18:18;99853.91;;;18.10;100.00
31911;BME280;18457;52.432;16.914;2023-07-20T03:20:50;99851.45;;;18.08;100.00
31911;BME280;18457;52.432;16.914;2023-07-20T03:23:22;99850.81;;;17.92;100.00
31911;BME280;18457;52.432;16.914;2023-07-20T03:25:54;99852.77;;;17.79;100.00
31911;BME280;18457;52.432;16.914;2023-07-20T03:28:26;99859.42;;;17.63;100.00
31911;BME280;18457;52.432;16.914;2023-07-20T03:30:58;99863.16;;;17.50;100.00
31911;BME280;18457;52.432;16.914;2023-07-20T03:33:32;99860.56;;;17.53;100.00
31911;BME280;18457;52.432;16.914;2023-07-20T03:36:04;99866.52;;;17.46;100.00
31911;BME280;18457;52.432;16.914;2023-07-20T03:38:36;99868.35;;;17.39;100.00
31911;BME280;18457;52.432;16.914;2023-07-20T03:41:08;99866.79;;;17.44;100.00
31911;BME280;18457;52.432;16.914;2023-07-20T03:43:42;99863.09;;;17.54;100.00
31911;BME280;18457;52.432;16.914;2023-07-20T03:46:14;99853.20;;;17.49;100.00
31911;BME280;18457;52.432;16.914;2023-07-20T03:48:46;99854.23;;;17.59;100.00
31911;BME280;18457;52.432;16.914;2023-07-20T03:51:18;99856.33;;;17.63;100.00
31911;BME280;18457;52.432;16.914;2023-07-20T03:53:50;99864.63;;;17.65;100.00
31911;BME280;18457;52.432;16.914;2023-07-20T03:56:22;99865.01;;;17.59;100.00
31911;BME280;18457;52.432;16.914;2023-07-20T03:58:55;99865.45;;;17.52;100.00
31911;BME280;18457;52.432;16.914;2023-07-20T04:01:27;99868.19;;;17.48;100.00
31911;BME280;18457;52.432;16.914;2023-07-20T04:03:59;99860.85;;;17.43;100.00
31911;BME280;18457;52.432;16.914;2023-07-20T04:06:32;99862.27;;;17.43;100.00
31911;BME280;18457;52.432;16.914;2023-07-20T04:09:04;99861.70;;;17.47;100.00
31911;BME280;18457;52.432;16.914;2023-07-20T04:11:36;99858.64;;;17.58;100.00
31911;BME280;18457;52.432;16.914;2023-07-20T04:14:08;99859.61;;;17.60;100.00
31911;BME280;18457;52.432;16.914;2023-07-20T04:16:40;99855.82;;;17.57;100.00
31911;BME280;18457;52.432;16.914;2023-07-20T04:19:13;99866.85;;;17.61;100.00
31911;BME280;18457;52.432;16.914;2023-07-20T04:21:45;99866.20;;;17.54;100.00
31911;BME280;18457;52.432;16.914;2023-07-20T04:24:16;99864.86;;;17.49;100.00
31911;BME280;18457;52.432;16.914;2023-07-20T04:26:48;99867.55;;;17.53;100.00
31911;BME280;18457;52.432;16.914;2023-07-20T04:29:20;99861.66;;;17.59;100.00
31911;BME280;18457;52.432;16.914;2023-07-20T04:31:52;99860.70;;;17.69;100.00
31911;BME280;18457;52.432;16.914;2023-07-20T04:34:23;99860.77;;;17.62;100.00
31911;BME280;18457;52.432;16.914;2023-07-20T04:36:55;99853.21;;;17.63;100.00
31911;BME280;18457;52.432;16.914;2023-07-20T04:39:28;99854.95;;;17.73;100.00
31911;BME280;18457;52.432;16.914;2023-07-20T04:42:07;99857.34;;;17.74;100.00
31911;BME280;18457;52.432;16.914;2023-07-20T04:44:39;99855.79;;;17.80;100.00
31911;BME280;18457;52.432;16.914;2023-07-20T04:47:12;99854.68;;;17.89;100.00
31911;BME280;18457;52.432;16.914;2023-07-20T04:49:44;99852.25;;;17.87;100.00
31911;BME280;18457;52.432;16.914;2023-07-20T04:52:16;99851.98;;;17.80;100.00
31911;BME280;18457;52.432;16.914;2023-07-20T04:54:48;99846.33;;;17.83;100.00
31911;BME280;18457;52.432;16.914;2023-07-20T04:57:20;99859.81;;;17.89;100.00
31911;BME280;18457;52.432;16.914;2023-07-20T04:59:55;99856.92;;;17.97;100.00
31911;BME280;18457;52.432;16.914;2023-07-20T05:02:27;99859.42;;;17.95;100.00
31911;BME280;18457;52.432;16.914;2023-07-20T05:04:59;99859.40;;;18.01;100.00
31911;BME280;18457;52.432;16.914;2023-07-20T05:07:32;99861.38;;;17.99;100.00
31911;BME280;18457;52.432;16.914;2023-07-20T05:10:04;99862.40;;;17.97;100.00
31911;BME280;18457;52.432;16.914;2023-07-20T05:12:35;99863.80;;;18.12;100.00
31911;BME280;18457;52.432;16.914;2023-07-20T05:15:08;99865.77;;;18.02;100.00
31911;BME280;18457;52.432;16.914;2023-07-20T05:17:42;99867.92;;;18.08;100.00
31911;BME280;18457;52.432;16.914;2023-07-20T05:20:14;99870.54;;;18.15;100.00
31911;BME280;18457;52.432;16.914;2023-07-20T05:22:46;99874.50;;;18.19;100.00
31911;BME280;18457;52.432;16.914;2023-07-20T05:25:18;99878.55;;;18.22;99.73
31911;BME280;18457;52.432;16.914;2023-07-20T05:27:53;99878.64;;;18.18;99.63
31911;BME280;18457;52.432;16.914;2023-07-20T05:30:25;99880.55;;;18.19;99.00
31911;BME280;18457;52.432;16.914;2023-07-20T05:33:00;99879.85;;;18.04;99.64
31911;BME280;18457;52.432;16.914;2023-07-20T05:35:32;99882.95;;;18.04;99.13
31911;BME280;18457;52.432;16.914;2023-07-20T05:38:04;99883.11;;;18.08;99.46
31911;BME280;18457;52.432;16.914;2023-07-20T05:40:39;99881.19;;;18.06;99.80
31911;BME280;18457;52.432;16.914;2023-07-20T05:43:12;99883.38;;;18.12;99.72
31911;BME280;18457;52.432;16.914;2023-07-20T05:45:44;99880.23;;;18.10;99.66
31911;BME280;18457;52.432;16.914;2023-07-20T05:48:18;99882.15;;;18.17;99.93
31911;BME280;18457;52.432;16.914;2023-07-20T05:50:50;99881.67;;;18.30;98.36
31911;BME280;18457;52.432;16.914;2023-07-20T05:53:22;99882.20;;;18.39;96.73
31911;BME280;18457;52.432;16.914;2023-07-20T05:55:55;99886.22;;;18.48;96.64
31911;BME280;18457;52.432;16.914;2023-07-20T05:58:26;99883.39;;;18.47;95.56
31911;BME280;18457;52.432;16.914;2023-07-20T06:00:58;99882.83;;;18.50;95.42
31911;BME280;18457;52.432;16.914;2023-07-20T06:03:30;99888.36;;;18.49;95.02
31911;BME280;18457;52.432;16.914;2023-07-20T06:06:04;99887.21;;;18.53;95.07
31911;BME280;18457;52.432;16.914;2023-07-20T06:08:37;99885.06;;;18.63;94.14
31911;BME280;18457;52.432;16.914;2023-07-20T06:11:09;99884.71;;;18.63;93.25
31911;BME280;18457;52.432;16.914;2023-07-20T06:13:41;99894.58;;;18.77;92.19
31911;BME280;18457;52.432;16.914;2023-07-20T06:16:12;99892.92;;;18.80;91.67
31911;BME280;18457;52.432;16.914;2023-07-20T06:18:44;99896.29;;;18.84;91.25
31911;BME280;18457;52.432;16.914;2023-07-20T06:21:18;99899.02;;;18.82;91.41
31911;BME280;18457;52.432;16.914;2023-07-20T06:23:50;99896.95;;;18.74;91.13
31911;BME280;18457;52.432;16.914;2023-07-20T06:26:25;99896.58;;;18.80;91.55
31911;BME280;18457;52.432;16.914;2023-07-20T06:28:56;99895.57;;;18.84;91.72
31911;BME280;18457;52.432;16.914;2023-07-20T06:31:28;99906.77;;;18.89;91.56
31911;BME280;18457;52.432;16.914;2023-07-20T06:34:00;99903.94;;;18.95;91.36
31911;BME280;18457;52.432;16.914;2023-07-20T06:36:33;99906.86;;;19.04;90.23
31911;BME280;18457;52.432;16.914;2023-07-20T06:39:06;99907.18;;;19.10;88.82
31911;BME280;18457;52.432;16.914;2023-07-20T06:41:41;99914.69;;;19.18;87.75
31911;BME280;18457;52.432;16.914;2023-07-20T06:44:13;99911.21;;;19.18;87.64
31911;BME280;18457;52.432;16.914;2023-07-20T06:46:45;99906.77;;;19.08;87.30
31911;BME280;18457;52.432;16.914;2023-07-20T06:49:26;99912.66;;;19.24;87.28
31911;BME280;18457;52.432;16.914;2023-07-20T06:51:59;99915.21;;;19.35;84.47
31911;BME280;18457;52.432;16.914;2023-07-20T06:54:31;99909.84;;;19.39;79.69
31911;BME280;18457;52.432;16.914;2023-07-20T06:57:06;99914.48;;;19.43;77.55
31911;BME280;18457;52.432;16.914;2023-07-20T06:59:41;99910.35;;;19.57;77.43
31911;BME280;18457;52.432;16.914;2023-07-20T07:02:13;99910.80;;;19.51;75.55
31911;BME280;18457;52.432;16.914;2023-07-20T07:04:45;99912.23;;;19.57;76.91
31911;BME280;18457;52.432;16.914;2023-07-20T07:07:18;99919.58;;;19.64;77.31
31911;BME280;18457;52.432;16.914;2023-07-20T07:09:53;99924.58;;;19.61;74.94
31911;BME280;18457;52.432;16.914;2023-07-20T07:12:27;99923.77;;;19.54;73.32
31911;BME280;18457;52.432;16.914;2023-07-20T07:14:59;99924.05;;;19.61;73.22
31911;BME280;18457;52.432;16.914;2023-07-20T07:17:31;99923.61;;;19.75;72.84
31911;BME280;18457;52.432;16.914;2023-07-20T07:20:06;99920.95;;;19.89;72.64
31911;BME280;18457;52.432;16.914;2023-07-20T07:22:51;99921.64;;;19.98;72.66
31911;BME280;18457;52.432;16.914;2023-07-20T07:25:24;99925.20;;;19.99;71.96
31911;BME280;18457;52.432;16.914;2023-07-20T07:27:57;99923.39;;;20.14;71.78
31911;BME280;18457;52.432;16.914;2023-07-20T07:30:29;99919.81;;;20.11;71.88
31911;BME280;18457;52.432;16.914;2023-07-20T07:33:05;99924.66;;;20.02;72.15
31911;BME280;18457;52.432;16.914;2023-07-20T07:35:38;99926.05;;;19.89;71.30
31911;BME280;18457;52.432;16.914;2023-07-20T07:38:10;99919.73;;;19.91;72.05
31911;BME280;18457;52.432;16.914;2023-07-20T07:41:02;99919.20;;;20.01;72.64
31911;BME280;18457;52.432;16.914;2023-07-20T07:43:34;99920.69;;;20.11;71.61
31911;BME280;18457;52.432;16.914;2023-07-20T07:46:07;99922.00;;;20.16;71.70
31911;BME280;18457;52.432;16.914;2023-07-20T07:48:39;99925.62;;;20.19;71.23
31911;BME280;18457;52.432;16.914;2023-07-20T07:51:11;99923.24;;;20.25;71.17
31911;BME280;18457;52.432;16.914;2023-07-20T07:53:45;99924.83;;;20.26;70.71
31911;BME280;18457;52.432;16.914;2023-07-20T07:56:17;99922.09;;;20.15;70.55
31911;BME280;18457;52.432;16.914;2023-07-20T07:58:54;99920.54;;;20.19;71.11
31911;BME280;18457;52.432;16.914;2023-07-20T08:01:26;99921.52;;;20.21;70.93
31911;BME280;18457;52.432;16.914;2023-07-20T08:03:58;99922.30;;;20.17;71.61
31911;BME280;18457;52.432;16.914;2023-07-20T08:06:29;99920.44;;;20.15;71.55
31911;BME280;18457;52.432;16.914;2023-07-20T08:09:03;99923.12;;;20.13;70.87
31911;BME280;18457;52.432;16.914;2023-07-20T08:11:36;99924.78;;;20.13;70.71
31911;BME280;18457;52.432;16.914;2023-07-20T08:14:11;99929.88;;;20.29;70.77
31911;BME280;18457;52.432;16.914;2023-07-20T08:16:42;99931.70;;;20.32;70.40
31911;BME280;18457;52.432;16.914;2023-07-20T08:19:14;99935.18;;;20.34;68.89
31911;BME280;18457;52.432;16.914;2023-07-20T08:21:47;99928.31;;;20.41;69.42
31911;BME280;18457;52.432;16.914;2023-07-20T08:24:19;99927.71;;;20.59;67.93
31911;BME280;18457;52.432;16.914;2023-07-20T08:26:51;99928.44;;;20.69;66.67
31911;BME280;18457;52.432;16.914;2023-07-20T08:29:23;99923.86;;;20.76;67.32
31911;BME280;18457;52.432;16.914;2023-07-20T08:31:55;99927.83;;;20.67;66.56
31911;BME280;18457;52.432;16.914;2023-07-20T08:34:27;99922.00;;;20.66;65.44
31911;BME280;18457;52.432;16.914;2023-07-20T08:37:01;99927.04;;;20.73;65.68
31911;BME280;18457;52.432;16.914;2023-07-20T08:39:33;99933.04;;;20.64;65.30
31911;BME280;18457;52.432;16.914;2023-07-20T08:42:08;99936.27;;;20.60;64.76
31911;BME280;18457;52.432;16.914;2023-07-20T08:44:42;99919.42;;;20.57;62.32
31911;BME280;18457;52.432;16.914;2023-07-20T08:47:17;99933.39;;;20.69;61.17
31911;BME280;18457;52.432;16.914;2023-07-20T08:49:50;99935.02;;;20.69;62.80
31911;BME280;18457;52.432;16.914;2023-07-20T08:52:22;99933.02;;;20.69;63.96
31911;BME280;18457;52.432;16.914;2023-07-20T08:54:54;99934.77;;;20.85;64.06
31911;BME280;18457;52.432;16.914;2023-07-20T08:57:26;99936.17;;;20.78;66.20
31911;BME280;18457;52.432;16.914;2023-07-20T08:59:59;99937.06;;;20.71;67.54
31911;BME280;18457;52.432;16.914;2023-07-20T09:02:30;99945.02;;;20.60;68.68
31911;BME280;18457;52.432;16.914;2023-07-20T09:05:09;99949.08;;;20.43;69.24
31911;BME280;18457;52.432;16.914;2023-07-20T09:07:41;99954.35;;;20.31;70.56
31911;BME280;18457;52.432;16.914;2023-07-20T09:10:14;99959.89;;;20.04;72.71
31911;BME280;18457;52.432;16.914;2023-07-20T09:12:45;99982.77;;;19.84;76.23
31911;BME280;18457;52.432;16.914;2023-07-20T09:15:16;100013.52;;;19.66;81.98
31911;BME280;18457;52.432;16.914;2023-07-20T09:17:50;100030.48;;;18.66;78.75
31911;BME280;18457;52.432;16.914;2023-07-20T09:20:24;100022.59;;;18.02;80.16
31911;BME280;18457;52.432;16.914;2023-07-20T09:22:57;100014.71;;;17.96;80.80
31911;BME280;18457;52.432;16.914;2023-07-20T09:25:31;100005.45;;;18.04;83.51
31911;BME280;18457;52.432;16.914;2023-07-20T09:28:05;99999.70;;;18.11;85.08
31911;BME280;18457;52.432;16.914;2023-07-20T09:30:37;99998.17;;;18.19;85.55
31911;BME280;18457;52.432;16.914;2023-07-20T09:33:19;99999.70;;;18.23;84.87
31911;BME280;18457;52.432;16.914;2023-07-20T09:35:55;99995.68;;;18.26;86.50
31911;BME280;18457;52.432;16.914;2023-07-20T09:38:53;99986.59;;;18.25;85.85
31911;BME280;18457;52.432;16.914;2023-07-20T09:41:29;99981.15;;;18.27;86.38
31911;BME280;18457;52.432;16.914;2023-07-20T09:44:04;99983.99;;;18.31;85.04
31911;BME280;18457;52.432;16.914;2023-07-20T09:46:46;99983.08;;;18.32;85.28
31911;BME280;18457;52.432;16.914;2023-07-20T09:49:21;99982.06;;;18.40;84.10
31911;BME280;18457;52.432;16.914;2023-07-20T09:51:56;99986.27;;;18.37;82.91
31911;BME280;18457;52.432;16.914;2023-07-20T09:54:29;99987.04;;;18.42;82.77
31911;BME280;18457;52.432;16.914;2023-07-20T09:57:04;99987.77;;;18.30;84.52
31911;BME280;18457;52.432;16.914;2023-07-20T09:59:38;99989.05;;;18.15;85.35
31911;BME280;18457;52.432;16.914;2023-07-20T10:02:15;99992.23;;;18.29;84.11
31911;BME280;18457;52.432;16.914;2023-07-20T10:04:54;99986.80;;;18.55;84.71
31911;BME280;18457;52.432;16.914;2023-07-20T10:07:28;99987.13;;;18.75;84.21
31911;BME280;18457;52.432;16.914;2023-07-20T10:10:03;99984.06;;;18.93;83.55
31911;BME280;18457;52.432;16.914;2023-07-20T10:12:36;99984.52;;;19.00;83.02
31911;BME280;18457;52.432;16.914;2023-07-20T10:15:18;99977.98;;;19.19;81.43
31911;BME280;18457;52.432;16.914;2023-07-20T10:18:09;99979.71;;;19.26;81.70
31911;BME280;18457;52.432;16.914;2023-07-20T10:20:42;99972.72;;;19.41;80.70
31911;BME280;18457;52.432;16.914;2023-07-20T10:23:19;99969.88;;;19.58;80.61
31911;BME280;18457;52.432;16.914;2023-07-20T10:25:51;99970.70;;;19.57;76.79
31911;BME280;18457;52.432;16.914;2023-07-20T10:28:24;99969.17;;;19.55;76.05
31911;BME280;18457;52.432;16.914;2023-07-20T10:30:57;99973.52;;;19.63;77.08
31911;BME280;18457;52.432;16.914;2023-07-20T10:33:30;99969.84;;;19.56;75.53
31911;BME280;18457;52.432;16.914;2023-07-20T10:36:04;99971.05;;;19.75;75.35
31911;BME280;18457;52.432;16.914;2023-07-20T10:38:52;99974.48;;;19.97;77.32
31911;BME280;18457;52.432;16.914;2023-07-20T10:41:29;99976.88;;;19.84;75.37
31911;BME280;18457;52.432;16.914;2023-07-20T10:44:02;99977.23;;;19.92;75.95
31911;BME280;18457;52.432;16.914;2023-07-20T10:46:45;99976.40;;;19.85;75.15
31911;BME280;18457;52.432;16.914;2023-07-20T10:49:18;99971.94;;;19.79;75.92
31911;BME280;18457;52.432;16.914;2023-07-20T10:52:03;99969.24;;;20.02;76.32
31911;BME280;18457;52.432;16.914;2023-07-20T10:54:47;99968.41;;;20.11;74.48
31911;BME280;18457;52.432;16.914;2023-07-20T10:57:32;99960.05;;;20.38;74.05
31911;BME280;18457;52.432;16.914;2023-07-20T11:00:13;99957.67;;;20.63;71.26
31911;BME280;18457;52.432;16.914;2023-07-20T11:02:47;99954.98;;;20.62;69.26
31911;BME280;18457;52.432;16.914;2023-07-20T11:05:41;99948.91;;;20.80;66.55
31911;BME280;18457;52.432;16.914;2023-07-20T11:08:14;99947.54;;;20.98;67.06
31911;BME280;18457;52.432;16.914;2023-07-20T11:11:25;99942.73;;;21.24;67.01
31911;BME280;18457;52.432;16.914;2023-07-20T11:14:01;99945.73;;;21.54;65.11
31911;BME280;18457;52.432;16.914;2023-07-20T11:16:37;99946.85;;;21.72;63.28
31911;BME280;18457;52.432;16.914;2023-07-20T11:19:17;99947.20;;;21.99;64.18
31911;BME280;18457;52.432;16.914;2023-07-20T11:21:53;99945.68;;;21.64;61.77
31911;BME280;18457;52.432;16.914;2023-07-20T11:24:34;99942.67;;;21.39;62.60
31911;BME280;18457;52.432;16.914;2023-07-20T11:27:06;99943.55;;;21.15;61.71
31911;BME280;18457;52.432;16.914;2023-07-20T11:29:38;99937.05;;;21.14;60.89
31911;BME280;18457;52.432;16.914;2023-07-20T11:32:11;99938.02;;;21.39;59.54
31911;BME280;18457;52.432;16.914;2023-07-20T11:34:41;99937.29;;;21.44;59.78
31911;BME280;18457;52.432;16.914;2023-07-20T11:37:21;99932.80;;;21.71;58.31
31911;BME280;18457;52.432;16.914;2023-07-20T11:39:56;99933.88;;;21.98;57.67
31911;BME280;18457;52.432;16.914;2023-07-20T11:42:29;99934.52;;;22.17;54.70
31911;BME280;18457;52.432;16.914;2023-07-20T11:45:05;99932.54;;;22.13;55.18
31911;BME280;18457;52.432;16.914;2023-07-20T11:47:41;99937.31;;;22.03;55.46
31911;BME280;18457;52.432;16.914;2023-07-20T11:50:13;99944.54;;;21.91;55.96
31911;BME280;18457;52.432;16.914;2023-07-20T11:52:46;99946.94;;;21.89;57.31
31911;BME280;18457;52.432;16.914;2023-07-20T11:55:19;99949.44;;;22.01;57.23
31911;BME280;18457;52.432;16.914;2023-07-20T11:58:04;99945.05;;;22.10;56.24
31911;BME280;18457;52.432;16.914;2023-07-20T12:00:38;99940.23;;;22.24;55.75
31911;BME280;18457;52.432;16.914;2023-07-20T12:03:11;99935.31;;;22.33;55.37
31911;BME280;18457;52.432;16.914;2023-07-20T12:05:43;99940.16;;;22.52;54.24
31911;BME280;18457;52.432;16.914;2023-07-20T12:08:30;99941.97;;;22.46;53.75
31911;BME280;18457;52.432;16.914;2023-07-20T12:11:03;99936.71;;;22.42;53.51
31911;BME280;18457;52.432;16.914;2023-07-20T12:13:40;99935.00;;;22.73;54.27
31911;BME280;18457;52.432;16.914;2023-07-20T12:16:14;99934.64;;;22.95;53.59
31911;BME280;18457;52.432;16.914;2023-07-20T12:18:48;99935.01;;;23.12;52.78
31911;BME280;18457;52.432;16.914;2023-07-20T12:21:20;99931.05;;;23.33;52.59
31911;BME280;18457;52.432;16.914;2023-07-20T12:23:52;99946.36;;;23.35;51.39
31911;BME280;18457;52.432;16.914;2023-07-20T12:26:25;99937.02;;;23.21;47.87
31911;BME280;18457;52.432;16.914;2023-07-20T12:28:58;99928.70;;;23.28;48.90
31911;BME280;18457;52.432;16.914;2023-07-20T12:31:30;99920.45;;;23.41;49.62
31911;BME280;18457;52.432;16.914;2023-07-20T12:34:06;99917.15;;;23.52;49.51
31911;BME280;18457;52.432;16.914;2023-07-20T12:36:39;99917.61;;;23.68;50.05
31911;BME280;18457;52.432;16.914;2023-07-20T12:39:11;99924.77;;;23.59;49.34
31911;BME280;18457;52.432;16.914;2023-07-20T12:41:43;99922.88;;;23.50;48.59
31911;BME280;18457;52.432;16.914;2023-07-20T12:44:15;99925.73;;;23.53;48.59
31911;BME280;18457;52.432;16.914;2023-07-20T12:46:46;99920.52;;;23.49;48.07
31911;BME280;18457;52.432;16.914;2023-07-20T12:49:19;99924.29;;;23.48;48.86
31911;BME280;18457;52.432;16.914;2023-07-20T12:51:51;99918.13;;;23.70;49.50
31911;BME280;18457;52.432;16.914;2023-07-20T12:54:23;99925.93;;;23.89;48.34
31911;BME280;18457;52.432;16.914;2023-07-20T12:56:55;99920.41;;;23.91;46.77
31911;BME280;18457;52.432;16.914;2023-07-20T12:59:30;99949.23;;;23.69;47.72
31911;BME280;18457;52.432;16.914;2023-07-20T13:02:03;99943.39;;;23.11;48.92
31911;BME280;18457;52.432;16.914;2023-07-20T13:04:35;99942.67;;;23.09;50.45
31911;BME280;18457;52.432;16.914;2023-07-20T13:07:09;99940.13;;;22.87;50.21
31911;BME280;18457;52.432;16.914;2023-07-20T13:09:46;99937.66;;;22.70;50.64
31911;BME280;18457;52.432;16.914;2023-07-20T13:12:17;99945.16;;;22.79;51.73
31911;BME280;18457;52.432;16.914;2023-07-20T13:14:49;99949.70;;;22.82;51.14
31911;BME280;18457;52.432;16.914;2023-07-20T13:17:22;99951.07;;;22.92;50.80
31911;BME280;18457;52.432;16.914;2023-07-20T13:19:55;99948.15;;;22.96;50.72
31911;BME280;18457;52.432;16.914;2023-07-20T13:22:28;99950.14;;;23.03;50.70